sensor_id;sensor_type;location;lat;lon;timestamp;P1;durP1;ratioP1;P2;durP2;ratioP2
42084;SDS011;27746;52.228;20.890;2022-10-16T00:02:14;20.55;;;10.52;;
42084;SDS011;27746;52.228;20.890;2022-10-16T00:04:45;13.73;;;8.77;;
42084;SDS011;27746;52.228;20.890;2022-10-16T00:07:14;14.32;;;9.23;;
42084;SDS011;27746;52.228;20.890;2022-10-16T00:09:50;17.50;;;9.75;;
42084;SDS011;27746;52.228;20.890;2022-10-16T00:12:16;17.25;;;9.32;;
42084;SDS011;27746;52.228;20.890;2022-10-16T00:14:44;12.25;;;8.50;;
42084;SDS011;27746;52.228;20.890;2022-10-16T00:17:11;15.20;;;8.55;;
42084;SDS011;27746;52.228;20.890;2022-10-16T00:19:37;14.50;;;9.05;;
42084;SDS011;27746;52.228;20.890;2022-10-16T00:22:05;14.73;;;9.13;;
42084;SDS011;27746;52.228;20.890;2022-10-16T00:24:31;14.98;;;8.90;;
42084;SDS011;27746;52.228;20.890;2022-10-16T00:27:00;14.85;;;8.48;;
42084;SDS011;27746;52.228;20.890;2022-10-16T00:29:27;14.32;;;8.45;;
42084;SDS011;27746;52.228;20.890;2022-10-16T00:31:53;14.43;;;8.85;;
42084;SDS011;27746;52.228;20.890;2022-10-16T00:34:20;12.77;;;8.15;;
42084;SDS011;27746;52.228;20.890;2022-10-16T00:36:47;13.50;;;8.90;;
42084;SDS011;27746;52.228;20.890;2022-10-16T00:39:14;24.30;;;9.40;;
42084;SDS011;27746;52.228;20.890;2022-10-16T00:41:41;14.60;;;8.70;;
42084;SDS011;27746;52.228;20.890;2022-10-16T00:47:12;13.00;;;8.10;;
42084;SDS011;27746;52.228;20.890;2022-10-16T00:49:43;13.73;;;8.30;;
42084;SDS011;27746;52.228;20.890;2022-10-16T00:52:11;15.02;;;7.97;;
42084;SDS011;27746;52.228;20.890;2022-10-16T00:54:39;15.05;;;8.50;;
42084;SDS011;27746;52.228;20.890;2022-10-16T00:57:06;18.50;;;9.35;;
42084;SDS011;27746;52.228;20.890;2022-10-16T00:59:34;16.77;;;9.90;;
42084;SDS011;27746;52.228;20.890;2022-10-16T01:02:04;16.27;;;10.70;;
42084;SDS011;27746;52.228;20.890;2022-10-16T01:04:34;16.40;;;9.95;;
42084;SDS011;27746;52.228;20.890;2022-10-16T01:07:09;16.27;;;9.45;;
42084;SDS011;27746;52.228;20.890;2022-10-16T01:09:43;14.57;;;9.88;;
42084;SDS011;27746;52.228;20.890;2022-10-16T01:12:20;19.25;;;11.02;;
42084;SDS011;27746;52.228;20.890;2022-10-16T01:14:53;15.00;;;10.02;;
42084;SDS011;27746;52.228;20.890;2022-10-16T01:17:27;15.95;;;10.00;;
42084;SDS011;27746;52.228;20.890;2022-10-16T01:20:03;16.80;;;10.48;;
42084;SDS011;27746;52.228;20.890;2022-10-16T01:22:42;14.23;;;9.60;;
42084;SDS011;27746;52.228;20.890;2022-10-16T01:25:16;18.13;;;10.00;;
42084;SDS011;27746;52.228;20.890;2022-10-16T01:27:51;15.65;;;10.38;;
42084;SDS011;27746;52.228;20.890;2022-10-16T01:30:20;15.63;;;10.05;;
42084;SDS011;27746;52.228;20.890;2022-10-16T01:32:52;19.55;;;11.95;;
42084;SDS011;27746;52.228;20.890;2022-10-16T01:35:24;19.83;;;10.80;;
42084;SDS011;27746;52.228;20.890;2022-10-16T01:37:56;19.70;;;11.90;;
42084;SDS011;27746;52.228;20.890;2022-10-16T01:40:28;22.80;;;12.13;;
42084;SDS011;27746;52.228;20.890;2022-10-16T01:43:00;17.75;;;11.80;;
42084;SDS011;27746;52.228;20.890;2022-10-16T01:45:29;17.13;;;10.80;;
42084;SDS011;27746;52.228;20.890;2022-10-16T01:47:59;18.15;;;12.30;;
42084;SDS011;27746;52.228;20.890;2022-10-16T01:50:29;23.88;;;12.27;;
42084;SDS011;27746;52.228;20.890;2022-10-16T01:52:59;24.23;;;13.13;;
42084;SDS011;27746;52.228;20.890;2022-10-16T01:55:29;18.77;;;12.35;;
42084;SDS011;27746;52.228;20.890;2022-10-16T01:58:01;21.25;;;12.27;;
42084;SDS011;27746;52.228;20.890;2022-10-16T02:00:31;19.27;;;12.75;;
42084;SDS011;27746;52.228;20.890;2022-10-16T02:02:58;20.02;;;12.70;;
42084;SDS011;27746;52.228;20.890;2022-10-16T02:05:28;23.77;;;13.43;;
42084;SDS011;27746;52.228;20.890;2022-10-16T02:07:58;16.65;;;12.00;;
42084;SDS011;27746;52.228;20.890;2022-10-16T02:10:25;20.50;;;12.95;;
42084;SDS011;27746;52.228;20.890;2022-10-16T02:12:56;20.38;;;12.85;;
42084;SDS011;27746;52.228;20.890;2022-10-16T02:15:28;21.80;;;12.77;;
42084;SDS011;27746;52.228;20.890;2022-10-16T02:17:55;20.85;;;13.45;;
42084;SDS011;27746;52.228;20.890;2022-10-16T02:20:22;23.42;;;14.05;;
42084;SDS011;27746;52.228;20.890;2022-10-16T02:22:53;20.15;;;12.40;;
42084;SDS011;27746;52.228;20.890;2022-10-16T02:25:22;22.98;;;12.38;;
42084;SDS011;27746;52.228;20.890;2022-10-16T02:27:54;25.00;;;13.85;;
42084;SDS011;27746;52.228;20.890;2022-10-16T02:30:27;21.95;;;13.98;;
42084;SDS011;27746;52.228;20.890;2022-10-16T02:32:59;25.80;;;13.48;;
42084;SDS011;27746;52.228;20.890;2022-10-16T02:35:28;21.48;;;13.23;;
42084;SDS011;27746;52.228;20.890;2022-10-16T02:37:56;25.85;;;13.57;;
42084;SDS011;27746;52.228;20.890;2022-10-16T02:40:24;22.23;;;12.65;;
42084;SDS011;27746;52.228;20.890;2022-10-16T02:42:54;21.85;;;13.70;;
42084;SDS011;27746;52.228;20.890;2022-10-16T02:45:21;21.40;;;12.77;;
42084;SDS011;27746;52.228;20.890;2022-10-16T02:47:51;23.67;;;13.80;;
42084;SDS011;27746;52.228;20.890;2022-10-16T02:50:19;22.92;;;14.50;;
42084;SDS011;27746;52.228;20.890;2022-10-16T02:52:47;20.40;;;14.30;;
42084;SDS011;27746;52.228;20.890;2022-10-16T02:55:14;21.40;;;14.38;;
42084;SDS011;27746;52.228;20.890;2022-10-16T02:57:41;25.48;;;15.25;;
42084;SDS011;27746;52.228;20.890;2022-10-16T03:00:09;22.45;;;13.77;;
42084;SDS011;27746;52.228;20.890;2022-10-16T03:02:38;24.85;;;14.52;;
42084;SDS011;27746;52.228;20.890;2022-10-16T03:05:07;22.35;;;13.93;;
42084;SDS011;27746;52.228;20.890;2022-10-16T03:07:35;25.38;;;15.70;;
42084;SDS011;27746;52.228;20.890;2022-10-16T03:10:02;24.65;;;15.43;;
42084;SDS011;27746;52.228;20.890;2022-10-16T03:12:29;20.50;;;13.68;;
42084;SDS011;27746;52.228;20.890;2022-10-16T03:14:56;24.15;;;13.95;;
42084;SDS011;27746;52.228;20.890;2022-10-16T03:17:23;22.83;;;14.35;;
42084;SDS011;27746;52.228;20.890;2022-10-16T03:19:50;28.25;;;14.93;;
42084;SDS011;27746;52.228;20.890;2022-10-16T03:22:19;23.58;;;14.63;;
42084;SDS011;27746;52.228;20.890;2022-10-16T03:24:46;22.88;;;14.52;;
42084;SDS011;27746;52.228;20.890;2022-10-16T03:27:12;25.63;;;15.00;;
42084;SDS011;27746;52.228;20.890;2022-10-16T03:29:39;21.45;;;13.82;;
42084;SDS011;27746;52.228;20.890;2022-10-16T03:32:06;21.90;;;14.23;;
42084;SDS011;27746;52.228;20.890;2022-10-16T03:34:33;23.73;;;14.35;;
42084;SDS011;27746;52.228;20.890;2022-10-16T03:37:00;25.80;;;16.00;;
42084;SDS011;27746;52.228;20.890;2022-10-16T03:39:28;22.63;;;15.00;;
42084;SDS011;27746;52.228;20.890;2022-10-16T03:41:55;22.88;;;15.40;;
42084;SDS011;27746;52.228;20.890;2022-10-16T03:44:22;24.25;;;15.13;;
42084;SDS011;27746;52.228;20.890;2022-10-16T03:46:49;23.00;;;13.25;;
42084;SDS011;27746;52.228;20.890;2022-10-16T03:49:16;24.48;;;14.40;;
42084;SDS011;27746;52.228;20.890;2022-10-16T03:51:43;24.45;;;14.63;;
42084;SDS011;27746;52.228;20.890;2022-10-16T03:54:10;24.08;;;15.00;;
42084;SDS011;27746;52.228;20.890;2022-10-16T03:56:38;22.75;;;13.93;;
42084;SDS011;27746;52.228;20.890;2022-10-16T03:59:05;22.95;;;14.90;;
42084;SDS011;27746;52.228;20.890;2022-10-16T04:01:32;24.63;;;14.55;;
42084;SDS011;27746;52.228;20.890;2022-10-16T04:03:59;23.75;;;14.57;;
42084;SDS011;27746;52.228;20.890;2022-10-16T04:06:26;21.50;;;14.45;;
42084;SDS011;27746;52.228;20.890;2022-10-16T04:08:52;27.98;;;14.55;;
42084;SDS011;27746;52.228;20.890;2022-10-16T04:11:19;21.88;;;14.63;;
42084;SDS011;27746;52.228;20.890;2022-10-16T04:13:48;19.88;;;12.90;;
42084;SDS011;27746;52.228;20.890;2022-10-16T04:16:14;25.13;;;15.02;;
42084;SDS011;27746;52.228;20.890;2022-10-16T04:18:41;20.77;;;14.18;;
42084;SDS011;27746;52.228;20.890;2022-10-16T04:21:08;22.08;;;14.63;;
42084;SDS011;27746;52.228;20.890;2022-10-16T04:23:35;22.00;;;14.60;;
42084;SDS011;27746;52.228;20.890;2022-10-16T04:26:02;25.23;;;13.90;;
42084;SDS011;27746;52.228;20.890;2022-10-16T04:28:29;24.40;;;13.45;;
42084;SDS011;27746;52.228;20.890;2022-10-16T04:30:57;21.45;;;13.85;;
42084;SDS011;27746;52.228;20.890;2022-10-16T04:33:24;24.27;;;15.10;;
42084;SDS011;27746;52.228;20.890;2022-10-16T04:35:55;24.48;;;14.43;;
42084;SDS011;27746;52.228;20.890;2022-10-16T04:38:23;22.77;;;14.40;;
42084;SDS011;27746;52.228;20.890;2022-10-16T04:40:50;23.63;;;15.73;;
42084;SDS011;27746;52.228;20.890;2022-10-16T04:43:17;20.05;;;13.90;;
42084;SDS011;27746;52.228;20.890;2022-10-16T04:45:44;23.00;;;15.05;;
42084;SDS011;27746;52.228;20.890;2022-10-16T04:48:13;25.58;;;14.30;;
42084;SDS011;27746;52.228;20.890;2022-10-16T04:50:39;22.15;;;14.32;;
42084;SDS011;27746;52.228;20.890;2022-10-16T04:53:07;21.98;;;13.73;;
42084;SDS011;27746;52.228;20.890;2022-10-16T04:55:34;21.83;;;14.27;;
42084;SDS011;27746;52.228;20.890;2022-10-16T04:58:02;24.85;;;15.13;;
42084;SDS011;27746;52.228;20.890;2022-10-16T05:00:29;21.10;;;13.57;;
42084;SDS011;27746;52.228;20.890;2022-10-16T05:02:56;22.25;;;15.00;;
42084;SDS011;27746;52.228;20.890;2022-10-16T05:05:25;24.75;;;15.25;;
42084;SDS011;27746;52.228;20.890;2022-10-16T05:07:52;21.75;;;14.15;;
42084;SDS011;27746;52.228;20.890;2022-10-16T05:10:19;21.52;;;14.25;;
42084;SDS011;27746;52.228;20.890;2022-10-16T05:12:46;23.95;;;14.57;;
42084;SDS011;27746;52.228;20.890;2022-10-16T05:15:13;23.90;;;14.48;;
42084;SDS011;27746;52.228;20.890;2022-10-16T05:17:40;21.17;;;13.73;;
42084;SDS011;27746;52.228;20.890;2022-10-16T05:20:08;20.90;;;13.85;;
42084;SDS011;27746;52.228;20.890;2022-10-16T05:22:37;21.63;;;14.35;;
42084;SDS011;27746;52.228;20.890;2022-10-16T05:25:04;23.67;;;15.07;;
42084;SDS011;27746;52.228;20.890;2022-10-16T05:27:31;23.92;;;14.32;;
42084;SDS011;27746;52.228;20.890;2022-10-16T05:29:58;25.67;;;15.55;;
42084;SDS011;27746;52.228;20.890;2022-10-16T05:32:25;25.00;;;14.98;;
42084;SDS011;27746;52.228;20.890;2022-10-16T05:34:52;24.73;;;14.43;;
42084;SDS011;27746;52.228;20.890;2022-10-16T05:37:19;20.90;;;14.00;;
42084;SDS011;27746;52.228;20.890;2022-10-16T05:39:47;24.25;;;15.38;;
42084;SDS011;27746;52.228;20.890;2022-10-16T05:42:14;25.77;;;14.65;;
42084;SDS011;27746;52.228;20.890;2022-10-16T05:44:41;23.00;;;13.98;;
42084;SDS011;27746;52.228;20.890;2022-10-16T05:47:08;25.83;;;15.23;;
42084;SDS011;27746;52.228;20.890;2022-10-16T05:49:35;22.35;;;14.02;;
42084;SDS011;27746;52.228;20.890;2022-10-16T05:52:03;22.90;;;15.60;;
42084;SDS011;27746;52.228;20.890;2022-10-16T05:54:30;23.05;;;14.82;;
42084;SDS011;27746;52.228;20.890;2022-10-16T05:56:58;22.00;;;13.90;;
42084;SDS011;27746;52.228;20.890;2022-10-16T05:59:25;21.30;;;14.52;;
42084;SDS011;27746;52.228;20.890;2022-10-16T06:01:52;23.65;;;15.40;;
42084;SDS011;27746;52.228;20.890;2022-10-16T06:04:19;22.92;;;14.85;;
42084;SDS011;27746;52.228;20.890;2022-10-16T06:06:46;21.73;;;13.73;;
42084;SDS011;27746;52.228;20.890;2022-10-16T06:09:12;21.92;;;15.05;;
42084;SDS011;27746;52.228;20.890;2022-10-16T06:11:39;25.45;;;15.90;;
42084;SDS011;27746;52.228;20.890;2022-10-16T06:14:08;22.02;;;13.82;;
42084;SDS011;27746;52.228;20.890;2022-10-16T06:16:36;25.20;;;14.25;;
42084;SDS011;27746;52.228;20.890;2022-10-16T06:19:03;19.45;;;13.50;;
42084;SDS011;27746;52.228;20.890;2022-10-16T06:21:33;22.15;;;14.00;;
42084;SDS011;27746;52.228;20.890;2022-10-16T06:24:00;24.02;;;14.35;;
42084;SDS011;27746;52.228;20.890;2022-10-16T06:26:27;22.35;;;13.85;;
42084;SDS011;27746;52.228;20.890;2022-10-16T06:28:56;22.13;;;13.40;;
42084;SDS011;27746;52.228;20.890;2022-10-16T06:31:26;22.23;;;14.00;;
42084;SDS011;27746;52.228;20.890;2022-10-16T06:33:56;22.05;;;13.85;;
42084;SDS011;27746;52.228;20.890;2022-10-16T06:36:23;24.10;;;13.85;;
42084;SDS011;27746;52.228;20.890;2022-10-16T06:38:51;22.67;;;13.88;;
42084;SDS011;27746;52.228;20.890;2022-10-16T06:41:19;19.92;;;12.60;;
42084;SDS011;27746;52.228;20.890;2022-10-16T06:43:47;22.33;;;13.02;;
42084;SDS011;27746;52.228;20.890;2022-10-16T06:46:15;16.60;;;12.30;;
42084;SDS011;27746;52.228;20.890;2022-10-16T06:48:45;20.48;;;12.73;;
42084;SDS011;27746;52.228;20.890;2022-10-16T06:51:13;20.20;;;11.85;;
42084;SDS011;27746;52.228;20.890;2022-10-16T06:53:42;19.48;;;13.10;;
42084;SDS011;27746;52.228;20.890;2022-10-16T06:56:11;20.95;;;12.48;;
42084;SDS011;27746;52.228;20.890;2022-10-16T06:58:39;17.02;;;11.38;;
42084;SDS011;27746;52.228;20.890;2022-10-16T07:01:06;18.67;;;12.30;;
42084;SDS011;27746;52.228;20.890;2022-10-16T07:03:35;20.08;;;12.13;;
42084;SDS011;27746;52.228;20.890;2022-10-16T07:06:06;18.42;;;12.75;;
42084;SDS011;27746;52.228;20.890;2022-10-16T07:08:34;18.80;;;12.45;;
42084;SDS011;27746;52.228;20.890;2022-10-16T07:11:03;19.55;;;12.55;;
42084;SDS011;27746;52.228;20.890;2022-10-16T07:13:32;18.13;;;11.68;;
42084;SDS011;27746;52.228;20.890;2022-10-16T07:16:03;18.60;;;12.68;;
42084;SDS011;27746;52.228;20.890;2022-10-16T07:18:30;17.88;;;12.27;;
42084;SDS011;27746;52.228;20.890;2022-10-16T07:21:02;21.45;;;13.50;;
42084;SDS011;27746;52.228;20.890;2022-10-16T07:23:32;21.95;;;12.70;;
42084;SDS011;27746;52.228;20.890;2022-10-16T07:25:58;20.13;;;12.85;;
42084;SDS011;27746;52.228;20.890;2022-10-16T07:28:25;18.52;;;11.63;;
42084;SDS011;27746;52.228;20.890;2022-10-16T07:30:53;20.00;;;13.02;;
42084;SDS011;27746;52.228;20.890;2022-10-16T07:33:20;19.25;;;12.82;;
42084;SDS011;27746;52.228;20.890;2022-10-16T07:35:47;17.83;;;12.68;;
42084;SDS011;27746;52.228;20.890;2022-10-16T07:38:16;19.58;;;12.68;;
42084;SDS011;27746;52.228;20.890;2022-10-16T07:40:43;22.25;;;13.45;;
42084;SDS011;27746;52.228;20.890;2022-10-16T07:43:10;20.98;;;12.48;;
42084;SDS011;27746;52.228;20.890;2022-10-16T07:45:46;21.92;;;13.13;;
42084;SDS011;27746;52.228;20.890;2022-10-16T07:48:14;19.58;;;12.13;;
42084;SDS011;27746;52.228;20.890;2022-10-16T07:50:42;18.77;;;11.75;;
42084;SDS011;27746;52.228;20.890;2022-10-16T07:53:09;19.65;;;11.95;;
42084;SDS011;27746;52.228;20.890;2022-10-16T07:55:38;19.05;;;11.90;;
42084;SDS011;27746;52.228;20.890;2022-10-16T07:58:05;18.52;;;11.95;;
42084;SDS011;27746;52.228;20.890;2022-10-16T08:00:32;15.95;;;11.13;;
42084;SDS011;27746;52.228;20.890;2022-10-16T08:02:59;17.38;;;11.32;;
42084;SDS011;27746;52.228;20.890;2022-10-16T08:05:26;17.95;;;11.95;;
42084;SDS011;27746;52.228;20.890;2022-10-16T08:07:55;17.80;;;10.40;;
42084;SDS011;27746;52.228;20.890;2022-10-16T08:10:23;17.42;;;10.63;;
42084;SDS011;27746;52.228;20.890;2022-10-16T08:12:53;17.33;;;10.32;;
42084;SDS011;27746;52.228;20.890;2022-10-16T08:15:20;15.07;;;10.20;;
42084;SDS011;27746;52.228;20.890;2022-10-16T08:17:53;18.55;;;9.85;;
42084;SDS011;27746;52.228;20.890;2022-10-16T08:20:21;18.67;;;10.32;;
42084;SDS011;27746;52.228;20.890;2022-10-16T08:22:48;16.05;;;10.05;;
42084;SDS011;27746;52.228;20.890;2022-10-16T08:25:15;12.98;;;9.80;;
42084;SDS011;27746;52.228;20.890;2022-10-16T08:27:42;15.32;;;9.60;;
42084;SDS011;27746;52.228;20.890;2022-10-16T08:30:11;15.98;;;9.88;;
42084;SDS011;27746;52.228;20.890;2022-10-16T08:32:38;16.25;;;10.18;;
42084;SDS011;27746;52.228;20.890;2022-10-16T08:35:06;18.70;;;10.15;;
42084;SDS011;27746;52.228;20.890;2022-10-16T08:37:34;15.63;;;9.60;;
42084;SDS011;27746;52.228;20.890;2022-10-16T08:40:01;13.70;;;9.55;;
42084;SDS011;27746;52.228;20.890;2022-10-16T08:42:31;12.32;;;9.20;;
42084;SDS011;27746;52.228;20.890;2022-10-16T08:45:19;14.75;;;9.73;;
42084;SDS011;27746;52.228;20.890;2022-10-16T08:47:55;15.90;;;9.57;;
42084;SDS011;27746;52.228;20.890;2022-10-16T08:50:32;14.88;;;8.95;;
42084;SDS011;27746;52.228;20.890;2022-10-16T08:53:03;13.95;;;8.40;;
42084;SDS011;27746;52.228;20.890;2022-10-16T08:55:32;20.27;;;8.90;;
42084;SDS011;27746;52.228;20.890;2022-10-16T08:58:07;14.75;;;9.10;;
42084;SDS011;27746;52.228;20.890;2022-10-16T09:00:40;13.38;;;9.00;;
42084;SDS011;27746;52.228;20.890;2022-10-16T09:03:11;15.38;;;8.95;;
42084;SDS011;27746;52.228;20.890;2022-10-16T09:08:52;14.43;;;8.38;;
42084;SDS011;27746;52.228;20.890;2022-10-16T09:11:31;13.73;;;8.32;;
42084;SDS011;27746;52.228;20.890;2022-10-16T09:14:07;13.23;;;8.15;;
42084;SDS011;27746;52.228;20.890;2022-10-16T09:16:51;15.68;;;8.98;;
42084;SDS011;27746;52.228;20.890;2022-10-16T09:19:23;13.05;;;9.02;;
42084;SDS011;27746;52.228;20.890;2022-10-16T09:21:56;13.18;;;8.80;;
42084;SDS011;27746;52.228;20.890;2022-10-16T09:24:26;13.50;;;8.63;;
42084;SDS011;27746;52.228;20.890;2022-10-16T09:26:52;15.27;;;8.38;;
42084;SDS011;27746;52.228;20.890;2022-10-16T09:29:20;11.38;;;8.05;;
42084;SDS011;27746;52.228;20.890;2022-10-16T09:31:51;11.80;;;8.18;;
42084;SDS011;27746;52.228;20.890;2022-10-16T09:34:23;12.98;;;8.20;;
42084;SDS011;27746;52.228;20.890;2022-10-16T09:36:52;14.00;;;8.52;;
42084;SDS011;27746;52.228;20.890;2022-10-16T09:39:21;15.30;;;8.75;;
42084;SDS011;27746;52.228;20.890;2022-10-16T09:41:48;12.07;;;8.57;;
42084;SDS011;27746;52.228;20.890;2022-10-16T09:44:18;12.15;;;8.50;;
42084;SDS011;27746;52.228;20.890;2022-10-16T09:46:47;13.02;;;8.55;;
42084;SDS011;27746;52.228;20.890;2022-10-16T09:49:20;9.85;;;7.75;;
42084;SDS011;27746;52.228;20.890;2022-10-16T09:51:49;13.82;;;9.20;;
42084;SDS011;27746;52.228;20.890;2022-10-16T09:54:17;12.25;;;8.02;;
42084;SDS011;27746;52.228;20.890;2022-10-16T09:56:45;13.40;;;8.05;;
42084;SDS011;27746;52.228;20.890;2022-10-16T09:59:17;11.80;;;8.63;;
42084;SDS011;27746;52.228;20.890;2022-10-16T10:01:45;12.95;;;8.88;;
42084;SDS011;27746;52.228;20.890;2022-10-16T10:04:14;11.90;;;7.93;;
42084;SDS011;27746;52.228;20.890;2022-10-16T10:06:43;12.82;;;8.95;;
42084;SDS011;27746;52.228;20.890;2022-10-16T10:09:16;11.45;;;8.45;;
42084;SDS011;27746;52.228;20.890;2022-10-16T10:11:50;14.32;;;7.78;;
42084;SDS011;27746;52.228;20.890;2022-10-16T10:16:50;10.85;;;7.60;;
42084;SDS011;27746;52.228;20.890;2022-10-16T10:19:19;12.30;;;7.90;;
42084;SDS011;27746;52.228;20.890;2022-10-16T10:21:49;12.65;;;7.22;;
42084;SDS011;27746;52.228;20.890;2022-10-16T10:24:17;13.25;;;7.68;;
42084;SDS011;27746;52.228;20.890;2022-10-16T10:26:48;14.43;;;8.38;;
42084;SDS011;27746;52.228;20.890;2022-10-16T10:29:23;11.60;;;8.00;;
42084;SDS011;27746;52.228;20.890;2022-10-16T10:32:02;11.00;;;7.43;;
42084;SDS011;27746;52.228;20.890;2022-10-16T10:34:41;10.90;;;7.93;;
42084;SDS011;27746;52.228;20.890;2022-10-16T10:40:16;13.77;;;8.73;;
42084;SDS011;27746;52.228;20.890;2022-10-16T10:42:56;10.63;;;7.55;;
42084;SDS011;27746;52.228;20.890;2022-10-16T10:45:35;13.57;;;8.07;;
42084;SDS011;27746;52.228;20.890;2022-10-16T10:48:16;13.40;;;8.48;;
42084;SDS011;27746;52.228;20.890;2022-10-16T10:50:56;12.10;;;9.45;;
42084;SDS011;27746;52.228;20.890;2022-10-16T10:53:32;13.25;;;8.73;;
42084;SDS011;27746;52.228;20.890;2022-10-16T10:56:09;12.48;;;8.98;;
42084;SDS011;27746;52.228;20.890;2022-10-16T10:58:55;16.25;;;10.05;;
42084;SDS011;27746;52.228;20.890;2022-10-16T11:01:35;12.05;;;9.10;;
42084;SDS011;27746;52.228;20.890;2022-10-16T11:04:12;13.93;;;7.63;;
42084;SDS011;27746;52.228;20.890;2022-10-16T11:07:00;14.65;;;8.30;;
42084;SDS011;27746;52.228;20.890;2022-10-16T11:09:33;13.40;;;8.27;;
42084;SDS011;27746;52.228;20.890;2022-10-16T11:12:04;11.57;;;8.38;;
42084;SDS011;27746;52.228;20.890;2022-10-16T11:14:38;10.02;;;7.88;;
42084;SDS011;27746;52.228;20.890;2022-10-16T11:17:11;12.90;;;8.93;;
42084;SDS011;27746;52.228;20.890;2022-10-16T11:19:44;11.38;;;7.40;;
42084;SDS011;27746;52.228;20.890;2022-10-16T11:22:17;11.40;;;7.38;;
42084;SDS011;27746;52.228;20.890;2022-10-16T11:24:50;14.82;;;8.95;;
42084;SDS011;27746;52.228;20.890;2022-10-16T11:27:31;10.27;;;7.55;;
42084;SDS011;27746;52.228;20.890;2022-10-16T11:30:03;12.82;;;8.40;;
42084;SDS011;27746;52.228;20.890;2022-10-16T11:32:42;16.77;;;9.30;;
42084;SDS011;27746;52.228;20.890;2022-10-16T11:35:29;12.07;;;8.00;;
42084;SDS011;27746;52.228;20.890;2022-10-16T11:38:03;12.18;;;8.05;;
42084;SDS011;27746;52.228;20.890;2022-10-16T11:40:40;11.88;;;8.00;;
42084;SDS011;27746;52.228;20.890;2022-10-16T11:43:10;11.52;;;7.72;;
42084;SDS011;27746;52.228;20.890;2022-10-16T11:45:42;12.57;;;7.82;;
42084;SDS011;27746;52.228;20.890;2022-10-16T11:48:14;9.80;;;7.32;;
42084;SDS011;27746;52.228;20.890;2022-10-16T11:50:49;10.93;;;7.30;;
42084;SDS011;27746;52.228;20.890;2022-10-16T11:53:21;10.10;;;7.00;;
42084;SDS011;27746;52.228;20.890;2022-10-16T11:55:58;12.90;;;7.00;;
42084;SDS011;27746;52.228;20.890;2022-10-16T11:58:25;11.75;;;7.00;;
42084;SDS011;27746;52.228;20.890;2022-10-16T12:00:59;11.02;;;7.35;;
42084;SDS011;27746;52.228;20.890;2022-10-16T12:03:38;13.52;;;7.20;;
42084;SDS011;27746;52.228;20.890;2022-10-16T12:06:14;11.82;;;7.55;;
42084;SDS011;27746;52.228;20.890;2022-10-16T12:08:49;10.88;;;7.30;;
42084;SDS011;27746;52.228;20.890;2022-10-16T12:11:24;13.30;;;8.18;;
42084;SDS011;27746;52.228;20.890;2022-10-16T12:14:05;12.60;;;8.52;;
42084;SDS011;27746;52.228;20.890;2022-10-16T12:16:33;10.13;;;7.35;;
42084;SDS011;27746;52.228;20.890;2022-10-16T12:19:09;11.27;;;7.40;;
42084;SDS011;27746;52.228;20.890;2022-10-16T12:21:38;9.82;;;6.75;;
42084;SDS011;27746;52.228;20.890;2022-10-16T12:24:05;10.40;;;6.97;;
42084;SDS011;27746;52.228;20.890;2022-10-16T12:26:36;11.13;;;7.45;;
42084;SDS011;27746;52.228;20.890;2022-10-16T12:29:12;12.27;;;8.05;;
42084;SDS011;27746;52.228;20.890;2022-10-16T12:31:43;10.95;;;7.75;;
42084;SDS011;27746;52.228;20.890;2022-10-16T12:34:14;11.10;;;7.68;;
42084;SDS011;27746;52.228;20.890;2022-10-16T12:36:47;13.35;;;7.95;;
42084;SDS011;27746;52.228;20.890;2022-10-16T12:39:20;11.60;;;8.00;;
42084;SDS011;27746;52.228;20.890;2022-10-16T12:41:53;13.38;;;7.88;;
42084;SDS011;27746;52.228;20.890;2022-10-16T12:44:31;11.20;;;7.60;;
42084;SDS011;27746;52.228;20.890;2022-10-16T12:46:59;13.38;;;8.07;;
42084;SDS011;27746;52.228;20.890;2022-10-16T12:49:31;16.02;;;8.98;;
42084;SDS011;27746;52.228;20.890;2022-10-16T12:52:01;11.52;;;8.00;;
42084;SDS011;27746;52.228;20.890;2022-10-16T12:54:30;17.95;;;10.13;;
42084;SDS011;27746;52.228;20.890;2022-10-16T12:57:17;12.43;;;8.35;;
42084;SDS011;27746;52.228;20.890;2022-10-16T12:59:58;12.48;;;7.95;;
42084;SDS011;27746;52.228;20.890;2022-10-16T13:05:29;15.60;;;9.55;;
42084;SDS011;27746;52.228;20.890;2022-10-16T13:08:09;12.90;;;9.48;;
42084;SDS011;27746;52.228;20.890;2022-10-16T13:10:51;12.00;;;8.10;;
42084;SDS011;27746;52.228;20.890;2022-10-16T13:13:40;17.35;;;7.68;;
42084;SDS011;27746;52.228;20.890;2022-10-16T13:16:26;13.57;;;8.80;;
42084;SDS011;27746;52.228;20.890;2022-10-16T13:19:04;11.05;;;7.97;;
42084;SDS011;27746;52.228;20.890;2022-10-16T13:21:43;16.38;;;8.40;;
42084;SDS011;27746;52.228;20.890;2022-10-16T13:24:19;14.80;;;9.05;;
42084;SDS011;27746;52.228;20.890;2022-10-16T13:26:56;10.88;;;7.70;;
42084;SDS011;27746;52.228;20.890;2022-10-16T13:29:30;11.68;;;7.28;;
42084;SDS011;27746;52.228;20.890;2022-10-16T13:31:58;15.32;;;8.02;;
42084;SDS011;27746;52.228;20.890;2022-10-16T13:34:28;10.52;;;7.47;;
42084;SDS011;27746;52.228;20.890;2022-10-16T13:36:55;10.70;;;7.45;;
42084;SDS011;27746;52.228;20.890;2022-10-16T13:39:23;13.52;;;8.00;;
42084;SDS011;27746;52.228;20.890;2022-10-16T13:42:03;11.13;;;7.32;;
42084;SDS011;27746;52.228;20.890;2022-10-16T13:44:36;11.85;;;7.90;;
42084;SDS011;27746;52.228;20.890;2022-10-16T13:47:10;11.20;;;7.13;;
42084;SDS011;27746;52.228;20.890;2022-10-16T13:49:43;12.88;;;8.07;;
42084;SDS011;27746;52.228;20.890;2022-10-16T13:52:15;10.73;;;6.75;;
42084;SDS011;27746;52.228;20.890;2022-10-16T13:54:44;12.32;;;7.20;;
42084;SDS011;27746;52.228;20.890;2022-10-16T13:57:12;12.88;;;7.38;;
42084;SDS011;27746;52.228;20.890;2022-10-16T13:59:41;10.25;;;6.50;;
42084;SDS011;27746;52.228;20.890;2022-10-16T14:02:14;9.02;;;6.45;;
42084;SDS011;27746;52.228;20.890;2022-10-16T14:04:47;13.27;;;7.65;;
42084;SDS011;27746;52.228;20.890;2022-10-16T14:07:18;23.05;;;8.02;;
42084;SDS011;27746;52.228;20.890;2022-10-16T14:09:49;10.63;;;7.07;;
42084;SDS011;27746;52.228;20.890;2022-10-16T14:12:18;10.32;;;6.78;;
42084;SDS011;27746;52.228;20.890;2022-10-16T14:14:47;14.25;;;7.70;;
42084;SDS011;27746;52.228;20.890;2022-10-16T14:17:18;9.73;;;7.10;;
42084;SDS011;27746;52.228;20.890;2022-10-16T14:19:48;9.80;;;6.95;;
42084;SDS011;27746;52.228;20.890;2022-10-16T14:22:28;11.30;;;7.00;;
42084;SDS011;27746;52.228;20.890;2022-10-16T14:24:57;12.20;;;8.00;;
42084;SDS011;27746;52.228;20.890;2022-10-16T14:27:26;13.30;;;7.93;;
42084;SDS011;27746;52.228;20.890;2022-10-16T14:32:55;10.60;;;7.28;;
42084;SDS011;27746;52.228;20.890;2022-10-16T14:35:25;12.82;;;8.00;;
42084;SDS011;27746;52.228;20.890;2022-10-16T14:37:54;12.57;;;7.43;;
42084;SDS011;27746;52.228;20.890;2022-10-16T14:40:23;17.17;;;8.45;;
42084;SDS011;27746;52.228;20.890;2022-10-16T14:42:52;9.85;;;7.07;;
42084;SDS011;27746;52.228;20.890;2022-10-16T14:45:22;13.45;;;7.75;;
42084;SDS011;27746;52.228;20.890;2022-10-16T14:47:52;11.82;;;8.20;;
42084;SDS011;27746;52.228;20.890;2022-10-16T14:50:21;12.65;;;7.82;;
42084;SDS011;27746;52.228;20.890;2022-10-16T14:52:48;13.40;;;8.55;;